Terminal Aerodrome Forecast
Issued by NWS Wilmington, OH

Current Version | Previous Version | Text Only | Print | Product List | Glossary Off
Versions: 1 2 3 4 5 6 7 8 9 10 11 12 13

954
FTUS41 KILN 211133
TAFCMH
TAF
KCMH 211133Z 2112/2212 04004KT 5SM BR VCSH SCT008 OVC012
      TEMPO 2112/2115 4SM -RA BR OVC004
     FM211500 35010KT P6SM SCT003 OVC012
     FM211900 35012G20KT P6SM VCSH SCT020 OVC035
     FM220000 35006KT P6SM SCT060=

USA.gov is the U.S. government's official web portal to all federal, state and local government web resources and services.